sensor_id;sensor_type;location;lat;lon;timestamp;P1;durP1;ratioP1;P2;durP2;ratioP2
41921;SDS011;27609;51.002;5.354;2023-05-10T00:00:54;31.10;;;19.05;;
41921;SDS011;27609;51.002;5.354;2023-05-10T00:03:20;28.15;;;17.35;;
41921;SDS011;27609;51.002;5.354;2023-05-10T00:05:45;35.75;;;19.65;;
41921;SDS011;27609;51.002;5.354;2023-05-10T00:08:11;33.17;;;19.45;;
41921;SDS011;27609;51.002;5.354;2023-05-10T00:10:37;31.83;;;18.02;;
41921;SDS011;27609;51.002;5.354;2023-05-10T00:13:03;29.10;;;17.13;;
41921;SDS011;27609;51.002;5.354;2023-05-10T00:15:28;25.80;;;17.52;;
41921;SDS011;27609;51.002;5.354;2023-05-10T00:17:55;28.85;;;18.40;;
41921;SDS011;27609;51.002;5.354;2023-05-10T00:20:22;25.65;;;16.80;;
41921;SDS011;27609;51.002;5.354;2023-05-10T00:22:47;25.50;;;16.70;;
41921;SDS011;27609;51.002;5.354;2023-05-10T00:25:13;28.20;;;16.40;;
41921;SDS011;27609;51.002;5.354;2023-05-10T00:27:39;26.13;;;15.30;;
41921;SDS011;27609;51.002;5.354;2023-05-10T00:30:05;24.23;;;16.25;;
41921;SDS011;27609;51.002;5.354;2023-05-10T00:32:31;23.83;;;15.45;;
41921;SDS011;27609;51.002;5.354;2023-05-10T00:34:57;24.67;;;15.75;;
41921;SDS011;27609;51.002;5.354;2023-05-10T00:37:23;20.85;;;15.05;;
41921;SDS011;27609;51.002;5.354;2023-05-10T00:39:49;24.67;;;15.57;;
41921;SDS011;27609;51.002;5.354;2023-05-10T00:42:14;23.27;;;15.45;;
41921;SDS011;27609;51.002;5.354;2023-05-10T00:44:40;22.80;;;14.80;;
41921;SDS011;27609;51.002;5.354;2023-05-10T00:47:06;20.70;;;14.50;;
41921;SDS011;27609;51.002;5.354;2023-05-10T00:49:32;22.13;;;15.07;;
41921;SDS011;27609;51.002;5.354;2023-05-10T00:51:58;25.73;;;14.73;;
41921;SDS011;27609;51.002;5.354;2023-05-10T00:54:24;22.35;;;14.18;;
41921;SDS011;27609;51.002;5.354;2023-05-10T00:56:50;20.60;;;14.20;;
41921;SDS011;27609;51.002;5.354;2023-05-10T00:59:16;20.02;;;13.13;;
41921;SDS011;27609;51.002;5.354;2023-05-10T01:01:43;24.45;;;14.77;;
41921;SDS011;27609;51.002;5.354;2023-05-10T01:04:10;23.90;;;15.45;;
41921;SDS011;27609;51.002;5.354;2023-05-10T01:06:38;23.35;;;14.63;;
41921;SDS011;27609;51.002;5.354;2023-05-10T01:09:06;22.13;;;13.95;;
41921;SDS011;27609;51.002;5.354;2023-05-10T01:11:35;23.38;;;15.63;;
41921;SDS011;27609;51.002;5.354;2023-05-10T01:14:02;21.05;;;13.95;;
41921;SDS011;27609;51.002;5.354;2023-05-10T01:16:32;20.10;;;15.23;;
41921;SDS011;27609;51.002;5.354;2023-05-10T01:19:01;22.38;;;14.57;;
41921;SDS011;27609;51.002;5.354;2023-05-10T01:21:33;23.85;;;15.05;;
41921;SDS011;27609;51.002;5.354;2023-05-10T01:24:18;17.98;;;13.93;;
41921;SDS011;27609;51.002;5.354;2023-05-10T01:27:01;19.90;;;14.43;;
41921;SDS011;27609;51.002;5.354;2023-05-10T01:34:58;23.95;;;13.65;;
41921;SDS011;27609;51.002;5.354;2023-05-10T01:37:34;24.70;;;13.77;;
41921;SDS011;27609;51.002;5.354;2023-05-10T01:42:40;26.00;;;13.57;;
41921;SDS011;27609;51.002;5.354;2023-05-10T01:45:24;20.50;;;14.15;;
41921;SDS011;27609;51.002;5.354;2023-05-10T01:48:03;23.85;;;14.05;;
41921;SDS011;27609;51.002;5.354;2023-05-10T01:50:35;23.65;;;12.27;;
41921;SDS011;27609;51.002;5.354;2023-05-10T01:53:04;25.63;;;13.10;;
41921;SDS011;27609;51.002;5.354;2023-05-10T01:55:35;24.95;;;13.73;;
41921;SDS011;27609;51.002;5.354;2023-05-10T01:58:08;23.13;;;12.43;;
41921;SDS011;27609;51.002;5.354;2023-05-10T02:00:40;21.98;;;13.20;;
41921;SDS011;27609;51.002;5.354;2023-05-10T02:03:09;19.80;;;12.13;;
41921;SDS011;27609;51.002;5.354;2023-05-10T02:05:36;26.45;;;13.70;;
41921;SDS011;27609;51.002;5.354;2023-05-10T02:08:05;24.45;;;13.50;;
41921;SDS011;27609;51.002;5.354;2023-05-10T02:10:32;21.63;;;12.77;;
41921;SDS011;27609;51.002;5.354;2023-05-10T02:12:59;21.55;;;12.80;;
41921;SDS011;27609;51.002;5.354;2023-05-10T02:15:26;23.13;;;13.70;;
41921;SDS011;27609;51.002;5.354;2023-05-10T02:17:56;21.48;;;13.73;;
41921;SDS011;27609;51.002;5.354;2023-05-10T02:20:25;21.25;;;12.90;;
41921;SDS011;27609;51.002;5.354;2023-05-10T02:22:52;21.88;;;14.02;;
41921;SDS011;27609;51.002;5.354;2023-05-10T02:25:21;21.65;;;13.57;;
41921;SDS011;27609;51.002;5.354;2023-05-10T02:27:48;22.02;;;12.85;;
41921;SDS011;27609;51.002;5.354;2023-05-10T02:30:15;19.88;;;13.05;;
41921;SDS011;27609;51.002;5.354;2023-05-10T02:32:41;32.05;;;14.05;;
41921;SDS011;27609;51.002;5.354;2023-05-10T02:35:08;27.45;;;13.85;;
41921;SDS011;27609;51.002;5.354;2023-05-10T02:37:35;24.02;;;14.27;;
41921;SDS011;27609;51.002;5.354;2023-05-10T02:40:02;27.23;;;14.38;;
41921;SDS011;27609;51.002;5.354;2023-05-10T02:42:29;22.67;;;13.50;;
41921;SDS011;27609;51.002;5.354;2023-05-10T02:45:01;27.10;;;16.05;;
41921;SDS011;27609;51.002;5.354;2023-05-10T02:47:30;28.88;;;14.50;;
41921;SDS011;27609;51.002;5.354;2023-05-10T02:49:56;27.70;;;14.73;;
41921;SDS011;27609;51.002;5.354;2023-05-10T02:52:24;27.17;;;15.88;;
41921;SDS011;27609;51.002;5.354;2023-05-10T02:54:55;25.48;;;16.02;;
41921;SDS011;27609;51.002;5.354;2023-05-10T02:57:25;30.35;;;16.60;;
41921;SDS011;27609;51.002;5.354;2023-05-10T02:59:54;28.90;;;16.50;;
41921;SDS011;27609;51.002;5.354;2023-05-10T03:02:20;28.08;;;16.23;;
41921;SDS011;27609;51.002;5.354;2023-05-10T03:04:46;32.97;;;15.85;;
41921;SDS011;27609;51.002;5.354;2023-05-10T03:07:12;32.28;;;16.02;;
41921;SDS011;27609;51.002;5.354;2023-05-10T03:09:38;25.48;;;15.55;;
41921;SDS011;27609;51.002;5.354;2023-05-10T03:12:27;30.25;;;14.85;;
41921;SDS011;27609;51.002;5.354;2023-05-10T03:15:22;24.98;;;15.10;;
41921;SDS011;27609;51.002;5.354;2023-05-10T03:18:21;31.52;;;15.88;;
41921;SDS011;27609;51.002;5.354;2023-05-10T03:20:56;33.50;;;16.00;;
41921;SDS011;27609;51.002;5.354;2023-05-10T03:23:27;32.10;;;16.38;;
41921;SDS011;27609;51.002;5.354;2023-05-10T03:25:59;36.72;;;17.58;;
41921;SDS011;27609;51.002;5.354;2023-05-10T03:28:25;32.78;;;16.23;;
41921;SDS011;27609;51.002;5.354;2023-05-10T03:30:54;28.15;;;15.00;;
41921;SDS011;27609;51.002;5.354;2023-05-10T03:33:21;34.22;;;15.85;;
41921;SDS011;27609;51.002;5.354;2023-05-10T03:35:47;29.75;;;16.48;;
41921;SDS011;27609;51.002;5.354;2023-05-10T03:38:13;26.88;;;15.93;;
41921;SDS011;27609;51.002;5.354;2023-05-10T03:40:39;28.73;;;15.40;;
41921;SDS011;27609;51.002;5.354;2023-05-10T03:43:04;30.40;;;16.48;;
41921;SDS011;27609;51.002;5.354;2023-05-10T03:45:30;30.17;;;16.30;;
41921;SDS011;27609;51.002;5.354;2023-05-10T03:47:59;28.15;;;15.88;;
41921;SDS011;27609;51.002;5.354;2023-05-10T03:50:25;34.08;;;15.35;;
41921;SDS011;27609;51.002;5.354;2023-05-10T03:52:51;29.48;;;14.68;;
41921;SDS011;27609;51.002;5.354;2023-05-10T03:55:17;25.13;;;15.48;;
41921;SDS011;27609;51.002;5.354;2023-05-10T03:57:42;24.95;;;15.52;;
41921;SDS011;27609;51.002;5.354;2023-05-10T04:00:08;25.63;;;15.85;;
41921;SDS011;27609;51.002;5.354;2023-05-10T04:02:34;28.50;;;16.08;;
41921;SDS011;27609;51.002;5.354;2023-05-10T04:05:00;33.67;;;16.30;;
41921;SDS011;27609;51.002;5.354;2023-05-10T04:07:27;29.50;;;15.68;;
41921;SDS011;27609;51.002;5.354;2023-05-10T04:09:53;30.63;;;16.58;;
41921;SDS011;27609;51.002;5.354;2023-05-10T04:12:18;31.00;;;16.33;;
41921;SDS011;27609;51.002;5.354;2023-05-10T04:14:44;31.42;;;16.33;;
41921;SDS011;27609;51.002;5.354;2023-05-10T04:17:10;30.85;;;16.98;;
41921;SDS011;27609;51.002;5.354;2023-05-10T04:19:36;29.02;;;16.55;;
41921;SDS011;27609;51.002;5.354;2023-05-10T04:22:02;34.28;;;17.58;;
41921;SDS011;27609;51.002;5.354;2023-05-10T04:24:28;30.70;;;16.50;;
41921;SDS011;27609;51.002;5.354;2023-05-10T04:26:54;32.25;;;16.50;;
41921;SDS011;27609;51.002;5.354;2023-05-10T04:29:20;37.40;;;18.85;;
41921;SDS011;27609;51.002;5.354;2023-05-10T04:31:46;32.25;;;17.35;;
41921;SDS011;27609;51.002;5.354;2023-05-10T04:34:11;28.38;;;18.63;;
41921;SDS011;27609;51.002;5.354;2023-05-10T04:36:37;33.63;;;18.17;;
41921;SDS011;27609;51.002;5.354;2023-05-10T04:39:03;32.90;;;16.80;;
41921;SDS011;27609;51.002;5.354;2023-05-10T04:41:29;31.05;;;19.25;;
41921;SDS011;27609;51.002;5.354;2023-05-10T04:43:55;35.42;;;19.27;;
41921;SDS011;27609;51.002;5.354;2023-05-10T04:46:20;36.20;;;19.27;;
41921;SDS011;27609;51.002;5.354;2023-05-10T04:48:46;36.35;;;19.42;;
41921;SDS011;27609;51.002;5.354;2023-05-10T04:51:12;38.70;;;18.92;;
41921;SDS011;27609;51.002;5.354;2023-05-10T04:53:38;33.95;;;19.92;;
41921;SDS011;27609;51.002;5.354;2023-05-10T04:56:04;32.78;;;17.75;;
41921;SDS011;27609;51.002;5.354;2023-05-10T04:58:30;39.47;;;20.60;;
41921;SDS011;27609;51.002;5.354;2023-05-10T05:00:55;33.35;;;17.90;;
41921;SDS011;27609;51.002;5.354;2023-05-10T05:03:21;37.45;;;19.98;;
41921;SDS011;27609;51.002;5.354;2023-05-10T05:05:47;39.08;;;19.30;;
41921;SDS011;27609;51.002;5.354;2023-05-10T05:08:13;40.65;;;20.58;;
41921;SDS011;27609;51.002;5.354;2023-05-10T05:10:38;40.13;;;19.90;;
41921;SDS011;27609;51.002;5.354;2023-05-10T05:13:04;37.88;;;18.30;;
41921;SDS011;27609;51.002;5.354;2023-05-10T05:15:30;41.72;;;20.63;;
41921;SDS011;27609;51.002;5.354;2023-05-10T05:17:56;34.20;;;20.10;;
41921;SDS011;27609;51.002;5.354;2023-05-10T05:20:21;38.90;;;21.63;;
41921;SDS011;27609;51.002;5.354;2023-05-10T05:22:47;40.03;;;21.00;;
41921;SDS011;27609;51.002;5.354;2023-05-10T05:25:13;55.63;;;27.30;;
41921;SDS011;27609;51.002;5.354;2023-05-10T05:27:40;55.03;;;26.55;;
41921;SDS011;27609;51.002;5.354;2023-05-10T05:30:05;76.78;;;30.25;;
41921;SDS011;27609;51.002;5.354;2023-05-10T05:32:32;72.90;;;30.30;;
41921;SDS011;27609;51.002;5.354;2023-05-10T05:34:57;86.28;;;33.53;;
41921;SDS011;27609;51.002;5.354;2023-05-10T05:37:23;92.20;;;35.80;;
41921;SDS011;27609;51.002;5.354;2023-05-10T05:39:49;101.40;;;36.80;;
41921;SDS011;27609;51.002;5.354;2023-05-10T05:42:15;98.78;;;37.33;;
41921;SDS011;27609;51.002;5.354;2023-05-10T05:44:42;95.80;;;35.72;;
41921;SDS011;27609;51.002;5.354;2023-05-10T05:47:08;98.15;;;36.55;;
41921;SDS011;27609;51.002;5.354;2023-05-10T05:49:34;105.00;;;39.28;;
41921;SDS011;27609;51.002;5.354;2023-05-10T05:52:00;96.45;;;35.58;;
41921;SDS011;27609;51.002;5.354;2023-05-10T05:54:27;96.38;;;37.17;;
41921;SDS011;27609;51.002;5.354;2023-05-10T05:56:53;98.00;;;37.17;;
41921;SDS011;27609;51.002;5.354;2023-05-10T05:59:20;98.75;;;38.72;;
41921;SDS011;27609;51.002;5.354;2023-05-10T06:01:46;87.22;;;37.17;;
41921;SDS011;27609;51.002;5.354;2023-05-10T06:04:12;89.55;;;35.70;;
41921;SDS011;27609;51.002;5.354;2023-05-10T06:06:37;83.82;;;34.55;;
41921;SDS011;27609;51.002;5.354;2023-05-10T06:09:03;84.57;;;34.75;;
41921;SDS011;27609;51.002;5.354;2023-05-10T06:11:29;81.72;;;34.13;;
41921;SDS011;27609;51.002;5.354;2023-05-10T06:13:57;87.78;;;33.47;;
41921;SDS011;27609;51.002;5.354;2023-05-10T06:16:23;83.25;;;34.67;;
41921;SDS011;27609;51.002;5.354;2023-05-10T06:18:48;74.13;;;31.77;;
41921;SDS011;27609;51.002;5.354;2023-05-10T06:21:14;77.30;;;33.00;;
41921;SDS011;27609;51.002;5.354;2023-05-10T06:23:41;78.93;;;31.63;;
41921;SDS011;27609;51.002;5.354;2023-05-10T06:26:06;73.85;;;31.92;;
41921;SDS011;27609;51.002;5.354;2023-05-10T06:28:32;77.88;;;30.58;;
41921;SDS011;27609;51.002;5.354;2023-05-10T06:30:58;72.72;;;30.95;;
41921;SDS011;27609;51.002;5.354;2023-05-10T06:33:24;71.95;;;30.23;;
41921;SDS011;27609;51.002;5.354;2023-05-10T06:35:50;69.15;;;30.10;;
41921;SDS011;27609;51.002;5.354;2023-05-10T06:38:16;64.05;;;28.65;;
41921;SDS011;27609;51.002;5.354;2023-05-10T06:40:42;63.92;;;28.10;;
41921;SDS011;27609;51.002;5.354;2023-05-10T06:43:08;60.45;;;28.23;;
41921;SDS011;27609;51.002;5.354;2023-05-10T06:45:34;65.68;;;29.02;;
41921;SDS011;27609;51.002;5.354;2023-05-10T06:48:00;59.40;;;27.45;;
41921;SDS011;27609;51.002;5.354;2023-05-10T06:50:26;59.95;;;28.50;;
41921;SDS011;27609;51.002;5.354;2023-05-10T06:52:52;59.08;;;28.10;;
41921;SDS011;27609;51.002;5.354;2023-05-10T06:55:18;56.75;;;26.92;;
41921;SDS011;27609;51.002;5.354;2023-05-10T06:57:43;59.38;;;26.55;;
41921;SDS011;27609;51.002;5.354;2023-05-10T07:00:09;67.88;;;34.67;;
41921;SDS011;27609;51.002;5.354;2023-05-10T07:02:35;62.85;;;29.80;;
41921;SDS011;27609;51.002;5.354;2023-05-10T07:05:01;63.97;;;30.17;;
41921;SDS011;27609;51.002;5.354;2023-05-10T07:07:27;65.07;;;29.95;;
41921;SDS011;27609;51.002;5.354;2023-05-10T07:09:52;61.72;;;29.15;;
41921;SDS011;27609;51.002;5.354;2023-05-10T07:12:18;66.90;;;28.98;;
41921;SDS011;27609;51.002;5.354;2023-05-10T07:14:44;70.53;;;32.55;;
41921;SDS011;27609;51.002;5.354;2023-05-10T07:17:10;70.97;;;31.10;;
41921;SDS011;27609;51.002;5.354;2023-05-10T07:19:36;65.75;;;30.05;;
41921;SDS011;27609;51.002;5.354;2023-05-10T07:22:01;104.55;;;51.08;;
41921;SDS011;27609;51.002;5.354;2023-05-10T07:24:27;77.55;;;30.52;;
41921;SDS011;27609;51.002;5.354;2023-05-10T07:26:53;60.75;;;28.40;;
41921;SDS011;27609;51.002;5.354;2023-05-10T07:29:18;63.33;;;28.95;;
41921;SDS011;27609;51.002;5.354;2023-05-10T07:31:44;64.03;;;27.85;;
41921;SDS011;27609;51.002;5.354;2023-05-10T07:34:09;63.53;;;27.63;;
41921;SDS011;27609;51.002;5.354;2023-05-10T07:36:35;66.97;;;29.05;;
41921;SDS011;27609;51.002;5.354;2023-05-10T07:39:01;65.05;;;30.20;;
41921;SDS011;27609;51.002;5.354;2023-05-10T07:41:27;70.35;;;29.02;;
41921;SDS011;27609;51.002;5.354;2023-05-10T07:43:53;65.03;;;29.35;;
41921;SDS011;27609;51.002;5.354;2023-05-10T07:46:19;62.50;;;29.27;;
41921;SDS011;27609;51.002;5.354;2023-05-10T07:48:44;65.60;;;29.08;;
41921;SDS011;27609;51.002;5.354;2023-05-10T07:51:10;58.72;;;26.85;;
41921;SDS011;27609;51.002;5.354;2023-05-10T07:53:37;64.43;;;28.23;;
41921;SDS011;27609;51.002;5.354;2023-05-10T07:58:54;65.63;;;27.73;;
41921;SDS011;27609;51.002;5.354;2023-05-10T08:01:21;62.97;;;26.42;;
41921;SDS011;27609;51.002;5.354;2023-05-10T08:03:47;59.25;;;27.73;;
41921;SDS011;27609;51.002;5.354;2023-05-10T08:06:13;57.53;;;26.60;;
41921;SDS011;27609;51.002;5.354;2023-05-10T08:08:40;55.80;;;25.50;;
41921;SDS011;27609;51.002;5.354;2023-05-10T08:11:06;58.25;;;26.83;;
41921;SDS011;27609;51.002;5.354;2023-05-10T08:13:31;52.53;;;25.92;;
41921;SDS011;27609;51.002;5.354;2023-05-10T08:15:57;52.78;;;26.17;;
41921;SDS011;27609;51.002;5.354;2023-05-10T08:18:23;52.20;;;25.13;;
41921;SDS011;27609;51.002;5.354;2023-05-10T08:20:48;51.42;;;26.10;;
41921;SDS011;27609;51.002;5.354;2023-05-10T08:23:15;52.35;;;24.58;;
41921;SDS011;27609;51.002;5.354;2023-05-10T08:25:41;50.00;;;26.17;;
41921;SDS011;27609;51.002;5.354;2023-05-10T08:28:06;52.90;;;25.52;;
41921;SDS011;27609;51.002;5.354;2023-05-10T08:30:32;52.17;;;24.92;;
41921;SDS011;27609;51.002;5.354;2023-05-10T08:32:58;46.50;;;25.75;;
41921;SDS011;27609;51.002;5.354;2023-05-10T08:35:23;42.22;;;23.27;;
41921;SDS011;27609;51.002;5.354;2023-05-10T08:37:50;47.17;;;23.85;;
41921;SDS011;27609;51.002;5.354;2023-05-10T08:40:16;48.78;;;24.65;;
41921;SDS011;27609;51.002;5.354;2023-05-10T08:42:48;48.08;;;24.02;;
41921;SDS011;27609;51.002;5.354;2023-05-10T08:45:21;43.97;;;23.10;;
41921;SDS011;27609;51.002;5.354;2023-05-10T08:47:48;22.05;;;11.55;;
41921;SDS011;27609;51.002;5.354;2023-05-10T08:50:16;14.65;;;8.05;;
41921;SDS011;27609;51.002;5.354;2023-05-10T08:52:45;13.07;;;7.53;;
41921;SDS011;27609;51.002;5.354;2023-05-10T08:55:13;11.05;;;7.25;;
41921;SDS011;27609;51.002;5.354;2023-05-10T08:57:40;10.23;;;6.13;;
41921;SDS011;27609;51.002;5.354;2023-05-10T09:00:05;10.93;;;6.97;;
41921;SDS011;27609;51.002;5.354;2023-05-10T09:02:33;13.23;;;7.25;;
41921;SDS011;27609;51.002;5.354;2023-05-10T09:05:00;16.13;;;7.05;;
41921;SDS011;27609;51.002;5.354;2023-05-10T09:07:26;9.32;;;6.15;;
41921;SDS011;27609;51.002;5.354;2023-05-10T09:09:52;7.43;;;5.63;;
41921;SDS011;27609;51.002;5.354;2023-05-10T09:12:18;24.25;;;19.15;;
41921;SDS011;27609;51.002;5.354;2023-05-10T09:14:44;24.95;;;20.38;;
41921;SDS011;27609;51.002;5.354;2023-05-10T09:17:11;7.93;;;5.22;;
41921;SDS011;27609;51.002;5.354;2023-05-10T09:19:37;13.07;;;9.13;;
41921;SDS011;27609;51.002;5.354;2023-05-10T09:22:03;7.07;;;5.88;;
41921;SDS011;27609;51.002;5.354;2023-05-10T09:24:29;9.82;;;7.97;;
41921;SDS011;27609;51.002;5.354;2023-05-10T09:26:56;13.10;;;9.95;;
41921;SDS011;27609;51.002;5.354;2023-05-10T09:29:23;11.27;;;7.00;;
41921;SDS011;27609;51.002;5.354;2023-05-10T09:31:49;12.25;;;7.72;;
41921;SDS011;27609;51.002;5.354;2023-05-10T09:34:20;8.85;;;6.85;;
41921;SDS011;27609;51.002;5.354;2023-05-10T09:36:57;7.20;;;6.03;;
41921;SDS011;27609;51.002;5.354;2023-05-10T09:39:35;11.38;;;6.50;;
41921;SDS011;27609;51.002;5.354;2023-05-10T09:42:08;13.85;;;7.18;;
41921;SDS011;27609;51.002;5.354;2023-05-10T09:44:35;12.13;;;6.55;;
41921;SDS011;27609;51.002;5.354;2023-05-10T09:47:01;11.40;;;7.25;;
41921;SDS011;27609;51.002;5.354;2023-05-10T09:49:27;9.82;;;6.97;;
41921;SDS011;27609;51.002;5.354;2023-05-10T09:52:03;14.65;;;7.82;;
41921;SDS011;27609;51.002;5.354;2023-05-10T09:54:31;10.80;;;7.63;;
41921;SDS011;27609;51.002;5.354;2023-05-10T09:56:57;12.15;;;7.85;;
41921;SDS011;27609;51.002;5.354;2023-05-10T09:59:24;12.88;;;8.55;;
41921;SDS011;27609;51.002;5.354;2023-05-10T10:01:52;13.68;;;9.18;;
41921;SDS011;27609;51.002;5.354;2023-05-10T10:04:21;13.32;;;8.05;;
41921;SDS011;27609;51.002;5.354;2023-05-10T10:06:47;15.35;;;8.95;;
41921;SDS011;27609;51.002;5.354;2023-05-10T10:09:32;12.10;;;8.50;;
41921;SDS011;27609;51.002;5.354;2023-05-10T10:11:59;16.25;;;9.52;;
41921;SDS011;27609;51.002;5.354;2023-05-10T10:14:26;19.00;;;10.27;;
41921;SDS011;27609;51.002;5.354;2023-05-10T10:16:53;13.40;;;8.80;;
41921;SDS011;27609;51.002;5.354;2023-05-10T10:19:20;12.50;;;8.93;;
41921;SDS011;27609;51.002;5.354;2023-05-10T10:21:47;14.70;;;9.77;;
41921;SDS011;27609;51.002;5.354;2023-05-10T10:24:13;22.50;;;12.23;;
41921;SDS011;27609;51.002;5.354;2023-05-10T10:26:38;19.67;;;10.60;;
41921;SDS011;27609;51.002;5.354;2023-05-10T10:34:33;16.50;;;10.55;;
41921;SDS011;27609;51.002;5.354;2023-05-10T10:37:03;18.02;;;9.27;;
41921;SDS011;27609;51.002;5.354;2023-05-10T10:39:30;18.75;;;10.15;;
41921;SDS011;27609;51.002;5.354;2023-05-10T10:41:56;16.40;;;10.35;;
41921;SDS011;27609;51.002;5.354;2023-05-10T10:49:48;19.20;;;10.98;;
41921;SDS011;27609;51.002;5.354;2023-05-10T10:57:55;17.50;;;11.05;;
41921;SDS011;27609;51.002;5.354;2023-05-10T11:05:42;14.65;;;9.00;;
41921;SDS011;27609;51.002;5.354;2023-05-10T11:10:36;14.07;;;10.38;;
41921;SDS011;27609;51.002;5.354;2023-05-10T11:13:05;18.95;;;10.18;;
41921;SDS011;27609;51.002;5.354;2023-05-10T11:15:37;17.13;;;9.40;;
41921;SDS011;27609;51.002;5.354;2023-05-10T11:18:18;15.68;;;9.93;;
41921;SDS011;27609;51.002;5.354;2023-05-10T11:20:59;13.02;;;8.13;;
41921;SDS011;27609;51.002;5.354;2023-05-10T11:26:08;12.45;;;8.65;;
41921;SDS011;27609;51.002;5.354;2023-05-10T11:28:34;14.02;;;8.88;;
41921;SDS011;27609;51.002;5.354;2023-05-10T11:31:06;16.20;;;9.13;;
41921;SDS011;27609;51.002;5.354;2023-05-10T11:33:42;11.18;;;8.50;;
41921;SDS011;27609;51.002;5.354;2023-05-10T11:36:13;11.35;;;8.20;;
41921;SDS011;27609;51.002;5.354;2023-05-10T11:38:40;16.52;;;8.93;;
41921;SDS011;27609;51.002;5.354;2023-05-10T11:41:08;12.43;;;8.45;;
41921;SDS011;27609;51.002;5.354;2023-05-10T11:43:35;12.98;;;9.13;;
41921;SDS011;27609;51.002;5.354;2023-05-10T11:46:03;11.52;;;8.40;;
41921;SDS011;27609;51.002;5.354;2023-05-10T11:48:32;11.33;;;8.13;;
41921;SDS011;27609;51.002;5.354;2023-05-10T11:50:58;11.10;;;7.75;;
41921;SDS011;27609;51.002;5.354;2023-05-10T11:53:26;11.85;;;8.77;;
41921;SDS011;27609;51.002;5.354;2023-05-10T11:55:52;8.18;;;6.07;;
41921;SDS011;27609;51.002;5.354;2023-05-10T11:58:18;9.35;;;7.35;;
41921;SDS011;27609;51.002;5.354;2023-05-10T12:00:44;11.40;;;7.38;;
41921;SDS011;27609;51.002;5.354;2023-05-10T12:03:10;9.25;;;6.38;;
41921;SDS011;27609;51.002;5.354;2023-05-10T12:05:36;9.30;;;6.47;;
41921;SDS011;27609;51.002;5.354;2023-05-10T12:08:12;7.65;;;6.75;;
41921;SDS011;27609;51.002;5.354;2023-05-10T12:10:39;9.52;;;6.05;;
41921;SDS011;27609;51.002;5.354;2023-05-10T12:13:04;12.70;;;5.97;;
41921;SDS011;27609;51.002;5.354;2023-05-10T12:15:32;7.82;;;6.07;;
41921;SDS011;27609;51.002;5.354;2023-05-10T12:17:57;8.23;;;5.97;;
41921;SDS011;27609;51.002;5.354;2023-05-10T12:20:23;8.55;;;5.78;;
41921;SDS011;27609;51.002;5.354;2023-05-10T12:22:53;7.13;;;5.00;;
41921;SDS011;27609;51.002;5.354;2023-05-10T12:25:21;5.93;;;3.90;;
41921;SDS011;27609;51.002;5.354;2023-05-10T12:27:49;6.82;;;4.50;;
41921;SDS011;27609;51.002;5.354;2023-05-10T12:30:25;7.68;;;4.57;;
41921;SDS011;27609;51.002;5.354;2023-05-10T12:32:52;5.90;;;3.65;;
41921;SDS011;27609;51.002;5.354;2023-05-10T12:35:18;8.98;;;4.25;;
41921;SDS011;27609;51.002;5.354;2023-05-10T12:37:49;6.20;;;4.57;;
41921;SDS011;27609;51.002;5.354;2023-05-10T12:40:17;4.95;;;3.72;;
41921;SDS011;27609;51.002;5.354;2023-05-10T12:42:43;4.60;;;3.58;;
41921;SDS011;27609;51.002;5.354;2023-05-10T12:45:11;6.78;;;4.18;;
41921;SDS011;27609;51.002;5.354;2023-05-10T12:47:37;4.55;;;3.65;;
41921;SDS011;27609;51.002;5.354;2023-05-10T12:50:03;7.80;;;4.25;;
41921;SDS011;27609;51.002;5.354;2023-05-10T12:52:29;5.13;;;3.70;;
41921;SDS011;27609;51.002;5.354;2023-05-10T12:54:57;5.75;;;4.22;;
41921;SDS011;27609;51.002;5.354;2023-05-10T12:57:24;3.78;;;3.22;;
41921;SDS011;27609;51.002;5.354;2023-05-10T12:59:49;5.68;;;3.55;;
41921;SDS011;27609;51.002;5.354;2023-05-10T13:02:15;3.90;;;3.50;;
41921;SDS011;27609;51.002;5.354;2023-05-10T13:04:43;7.28;;;4.20;;
41921;SDS011;27609;51.002;5.354;2023-05-10T13:07:09;4.80;;;3.88;;
41921;SDS011;27609;51.002;5.354;2023-05-10T13:09:35;4.47;;;3.53;;
41921;SDS011;27609;51.002;5.354;2023-05-10T13:12:01;3.97;;;3.58;;
41921;SDS011;27609;51.002;5.354;2023-05-10T13:14:27;5.35;;;3.95;;
41921;SDS011;27609;51.002;5.354;2023-05-10T13:16:53;5.35;;;4.07;;
41921;SDS011;27609;51.002;5.354;2023-05-10T13:19:19;5.43;;;4.15;;
41921;SDS011;27609;51.002;5.354;2023-05-10T13:21:45;4.00;;;3.33;;
41921;SDS011;27609;51.002;5.354;2023-05-10T13:24:11;7.13;;;2.92;;
41921;SDS011;27609;51.002;5.354;2023-05-10T13:26:39;5.50;;;3.95;;
41921;SDS011;27609;51.002;5.354;2023-05-10T13:29:05;7.20;;;3.65;;
41921;SDS011;27609;51.002;5.354;2023-05-10T13:31:31;4.38;;;3.08;;
41921;SDS011;27609;51.002;5.354;2023-05-10T13:33:58;3.30;;;2.90;;
41921;SDS011;27609;51.002;5.354;2023-05-10T13:36:23;3.67;;;2.70;;
41921;SDS011;27609;51.002;5.354;2023-05-10T13:38:49;2.58;;;2.35;;
41921;SDS011;27609;51.002;5.354;2023-05-10T13:41:14;2.55;;;1.90;;
41921;SDS011;27609;51.002;5.354;2023-05-10T13:43:40;2.92;;;1.98;;
41921;SDS011;27609;51.002;5.354;2023-05-10T13:46:06;6.50;;;1.90;;
41921;SDS011;27609;51.002;5.354;2023-05-10T13:48:31;2.63;;;2.17;;
41921;SDS011;27609;51.002;5.354;2023-05-10T13:50:57;2.63;;;2.00;;
41921;SDS011;27609;51.002;5.354;2023-05-10T13:53:23;2.45;;;1.90;;
41921;SDS011;27609;51.002;5.354;2023-05-10T13:55:48;3.10;;;2.20;;
41921;SDS011;27609;51.002;5.354;2023-05-10T13:58:14;3.75;;;2.10;;
41921;SDS011;27609;51.002;5.354;2023-05-10T14:00:40;3.33;;;1.98;;
41921;SDS011;27609;51.002;5.354;2023-05-10T14:03:05;2.80;;;1.92;;
41921;SDS011;27609;51.002;5.354;2023-05-10T14:05:33;3.85;;;2.22;;
41921;SDS011;27609;51.002;5.354;2023-05-10T14:07:59;3.85;;;2.22;;
41921;SDS011;27609;51.002;5.354;2023-05-10T14:10:25;2.88;;;2.42;;
41921;SDS011;27609;51.002;5.354;2023-05-10T14:12:50;2.05;;;1.80;;
41921;SDS011;27609;51.002;5.354;2023-05-10T14:15:16;3.03;;;2.05;;
41921;SDS011;27609;51.002;5.354;2023-05-10T14:17:42;3.20;;;2.28;;
41921;SDS011;27609;51.002;5.354;2023-05-10T14:20:07;2.85;;;2.42;;
41921;SDS011;27609;51.002;5.354;2023-05-10T14:22:34;2.28;;;2.08;;
41921;SDS011;27609;51.002;5.354;2023-05-10T14:25:00;2.38;;;2.17;;
41921;SDS011;27609;51.002;5.354;2023-05-10T14:27:26;2.95;;;2.47;;
41921;SDS011;27609;51.002;5.354;2023-05-10T14:29:51;2.33;;;1.70;;
41921;SDS011;27609;51.002;5.354;2023-05-10T14:32:18;3.38;;;2.28;;
41921;SDS011;27609;51.002;5.354;2023-05-10T14:34:43;3.83;;;1.75;;
41921;SDS011;27609;51.002;5.354;2023-05-10T14:37:10;2.00;;;1.80;;
41921;SDS011;27609;51.002;5.354;2023-05-10T14:39:36;1.60;;;1.50;;
41921;SDS011;27609;51.002;5.354;2023-05-10T14:42:02;2.35;;;1.60;;
41921;SDS011;27609;51.002;5.354;2023-05-10T14:44:28;2.25;;;2.00;;
41921;SDS011;27609;51.002;5.354;2023-05-10T14:46:54;3.55;;;2.20;;
41921;SDS011;27609;51.002;5.354;2023-05-10T14:49:21;2.72;;;1.90;;
41921;SDS011;27609;51.002;5.354;2023-05-10T14:51:47;3.70;;;2.13;;
41921;SDS011;27609;51.002;5.354;2023-05-10T14:54:13;3.92;;;1.92;;
41921;SDS011;27609;51.002;5.354;2023-05-10T14:56:39;2.70;;;2.45;;
41921;SDS011;27609;51.002;5.354;2023-05-10T14:59:06;2.97;;;2.67;;
41921;SDS011;27609;51.002;5.354;2023-05-10T15:01:32;2.60;;;2.33;;
41921;SDS011;27609;51.002;5.354;2023-05-10T15:04:00;2.88;;;2.58;;
41921;SDS011;27609;51.002;5.354;2023-05-10T15:06:33;5.10;;;2.40;;